Time;durP1;ratioP1;P1;durP2;ratioP2;P2;SDS_P1;SDS_P2;PMS_P1;PMS_P2;Temp;Humidity;BMP_temperature;BMP_pressure;BME280_temperature;BME280_humidity;BME280_pressure;Samples;Min_cycle;Max_cycle;Signal;HPM_P1;HPM_P2
2023/04/07 00:00:05;;;;;;;;;;;18.90;30.40;;;;;;5096444;28;20373;-60
2023/04/07 00:02:32;;;;;;;;;;;18.90;30.40;;;;;;5094110;28;19919;-61
2023/04/07 00:04:59;;;;;;;;;;;18.90;30.40;;;;;;5114289;28;19951;-60
2023/04/07 00:07:26;;;;;;;;;;;18.90;30.30;;;;;;5095706;28;19935;-60
2023/04/07 00:09:52;;;;;;;;;;;18.90;30.30;;;;;;5125172;27;19920;-61
2023/04/07 00:12:19;;;;;;;;;;;18.90;30.30;;;;;;5094481;28;19984;-61
2023/04/07 00:14:47;;;;;;;;;;;18.90;30.20;;;;;;5111470;28;19920;-60
2023/04/07 00:17:14;;;;;;;;;;;18.90;30.20;;;;;;5093076;28;19927;-59
2023/04/07 00:19:41;;;;;;;;;;;18.90;30.30;;;;;;5109138;28;19924;-61
2023/04/07 00:22:08;;;;;;;;;;;18.90;30.30;;;;;;5094771;28;19919;-60
2023/04/07 00:24:35;;;;;;;;;;;18.90;30.20;;;;;;5107758;28;19920;-59
2023/04/07 00:27:01;;;;;;;;;;;18.90;30.10;;;;;;5072750;28;19924;-61
2023/04/07 00:29:28;;;;;;;;;;;18.90;30.10;;;;;;5109822;28;19920;-60
2023/04/07 00:31:57;;;;;;;;;;;18.90;30.10;;;;;;5096792;28;19919;-62
2023/04/07 00:34:23;;;;;;;;;;;18.90;30.10;;;;;;5097622;28;19920;-60
2023/04/07 00:36:51;;;;;;;;;;;18.80;30.00;;;;;;5101248;28;19953;-60
2023/04/07 00:39:17;;;;;;;;;;;18.80;30.00;;;;;;5106217;28;19927;-61
2023/04/07 00:41:44;;;;;;;;;;;18.80;30.00;;;;;;5109894;28;19942;-60
2023/04/07 00:44:11;;;;;;;;;;;18.80;30.00;;;;;;5080278;28;20356;-58
2023/04/07 00:46:38;;;;;;;;;;;18.80;30.00;;;;;;5072151;28;19977;-59
2023/04/07 00:49:06;;;;;;;;;;;18.80;30.00;;;;;;5099758;28;19926;-60
2023/04/07 00:51:33;;;;;;;;;;;18.80;30.00;;;;;;5095731;28;19927;-60
2023/04/07 00:53:59;;;;;;;;;;;18.80;30.00;;;;;;5107332;28;19920;-60
2023/04/07 00:56:27;;;;;;;;;;;18.80;30.00;;;;;;5114332;28;19920;-60
2023/04/07 00:58:54;;;;;;;;;;;18.80;30.00;;;;;;5109377;27;19927;-60
2023/04/07 01:01:21;;;;;;;;;;;18.80;30.00;;;;;;5098628;28;19920;-59
2023/04/07 01:03:49;;;;;;;;;;;18.80;30.00;;;;;;5101850;28;19919;-60
2023/04/07 01:06:17;;;;;;;;;;;18.80;30.00;;;;;;5095990;28;20424;-60
2023/04/07 01:08:48;;;;;;;;;;;18.80;30.00;;;;;;5104103;28;20016;-59
2023/04/07 01:11:17;;;;;;;;;;;18.80;30.00;;;;;;5100686;28;19985;-59
2023/04/07 01:13:46;;;;;;;;;;;18.80;30.00;;;;;;5119802;27;19919;-58
2023/04/07 01:16:13;;;;;;;;;;;18.80;30.00;;;;;;5107733;28;19927;-59
2023/04/07 01:18:40;;;;;;;;;;;18.80;30.00;;;;;;5094678;28;20014;-59
2023/04/07 01:21:09;;;;;;;;;;;18.70;30.00;;;;;;5102240;28;19931;-59
2023/04/07 01:23:42;;;;;;;;;;;18.70;30.00;;;;;;5098187;28;19920;-60
2023/04/07 01:26:17;;;;;;;;;;;18.70;30.00;;;;;;5092777;28;19920;-59
2023/04/07 01:28:56;;;;;;;;;;;18.70;30.00;;;;;;5102222;28;19919;-60
2023/04/07 01:31:24;;;;;;;;;;;18.70;30.00;;;;;;5096830;28;19951;-59
2023/04/07 01:33:51;;;;;;;;;;;18.70;30.00;;;;;;5112864;27;19927;-59
2023/04/07 01:36:18;;;;;;;;;;;18.70;30.00;;;;;;5102974;28;19927;-60
2023/04/07 01:38:45;;;;;;;;;;;18.70;30.00;;;;;;5101640;28;19920;-59
2023/04/07 01:41:13;;;;;;;;;;;18.70;30.00;;;;;;5099668;28;19923;-59
2023/04/07 01:43:40;;;;;;;;;;;18.70;30.00;;;;;;5095829;28;19920;-59
2023/04/07 01:46:07;;;;;;;;;;;18.70;29.90;;;;;;5094962;28;19919;-59
2023/04/07 01:48:36;;;;;;;;;;;18.70;30.00;;;;;;5099019;28;20267;-59
2023/04/07 01:51:03;;;;;;;;;;;18.70;30.00;;;;;;5099071;28;20399;-59
2023/04/07 01:53:29;;;;;;;;;;;18.70;30.00;;;;;;5113322;27;19992;-60
2023/04/07 01:55:56;;;;;;;;;;;18.70;29.90;;;;;;5110820;27;20361;-59
2023/04/07 01:58:24;;;;;;;;;;;18.70;29.90;;;;;;5110466;27;19920;-59
2023/04/07 02:00:51;;;;;;;;;;;18.70;29.90;;;;;;5112893;28;20043;-59
2023/04/07 02:03:20;;;;;;;;;;;18.70;29.90;;;;;;5096020;28;20316;-59
2023/04/07 02:05:49;;;;;;;;;;;18.70;29.90;;;;;;5101445;28;19924;-59
2023/04/07 02:08:16;;;;;;;;;;;18.70;29.90;;;;;;5082462;27;20268;-59
2023/04/07 02:10:43;;;;;;;;;;;18.70;29.90;;;;;;5120550;27;19934;-59
2023/04/07 02:13:10;;;;;;;;;;;18.70;29.90;;;;;;5096045;28;19939;-59
2023/04/07 02:15:37;;;;;;;;;;;18.70;29.80;;;;;;5077965;28;19920;-60
2023/04/07 02:18:04;;;;;;;;;;;18.60;29.70;;;;;;5114096;27;19931;-59
2023/04/07 02:20:30;;;;;;;;;;;18.60;29.70;;;;;;5121545;27;19956;-59
2023/04/07 02:22:58;;;;;;;;;;;18.60;29.70;;;;;;5089520;27;19973;-59
2023/04/07 02:25:25;;;;;;;;;;;18.60;29.70;;;;;;5111461;28;19919;-58
2023/04/07 02:27:52;;;;;;;;;;;18.60;29.70;;;;;;5111760;28;19935;-58
2023/04/07 02:30:19;;;;;;;;;;;18.60;29.70;;;;;;5106173;28;19924;-59
2023/04/07 02:32:46;;;;;;;;;;;18.60;29.70;;;;;;5112928;28;19947;-59
2023/04/07 02:35:13;;;;;;;;;;;18.60;29.70;;;;;;5110047;28;19928;-58
2023/04/07 02:37:39;;;;;;;;;;;18.60;29.70;;;;;;5112508;28;19940;-60
2023/04/07 02:40:08;;;;;;;;;;;18.60;29.70;;;;;;5089393;28;19927;-59
2023/04/07 02:42:36;;;;;;;;;;;18.60;29.70;;;;;;5112379;28;20374;-59
2023/04/07 02:45:03;;;;;;;;;;;18.60;29.70;;;;;;5107816;28;19959;-59
2023/04/07 02:47:30;;;;;;;;;;;18.60;29.60;;;;;;5093423;28;20282;-60
2023/04/07 02:49:56;;;;;;;;;;;18.60;29.60;;;;;;5119188;27;19949;-59
2023/04/07 02:52:23;;;;;;;;;;;18.60;29.60;;;;;;5093752;28;19920;-59
2023/04/07 02:54:50;;;;;;;;;;;18.60;29.60;;;;;;5105415;28;19969;-59
2023/04/07 02:57:18;;;;;;;;;;;18.60;29.60;;;;;;5080547;28;19920;-59
2023/04/07 02:59:45;;;;;;;;;;;18.60;29.60;;;;;;5098305;28;19923;-60
2023/04/07 03:02:11;;;;;;;;;;;18.60;29.60;;;;;;5111815;28;19919;-59
2023/04/07 03:04:38;;;;;;;;;;;18.50;29.50;;;;;;5106121;27;19919;-59
2023/04/07 03:07:05;;;;;;;;;;;18.50;29.60;;;;;;5114165;27;19923;-59
2023/04/07 03:09:32;;;;;;;;;;;18.50;29.60;;;;;;5128303;27;19923;-60
2023/04/07 03:11:59;;;;;;;;;;;18.50;29.50;;;;;;5091583;28;19951;-59
2023/04/07 03:14:27;;;;;;;;;;;18.50;29.50;;;;;;5117008;27;19920;-58
2023/04/07 03:16:55;;;;;;;;;;;18.50;29.60;;;;;;5110224;28;19936;-59
2023/04/07 03:19:21;;;;;;;;;;;18.50;29.60;;;;;;5111487;28;19928;-58
2023/04/07 03:21:48;;;;;;;;;;;18.50;29.60;;;;;;5093828;28;20266;-60
2023/04/07 03:24:15;;;;;;;;;;;18.50;29.50;;;;;;5098034;28;20023;-59
2023/04/07 03:26:42;;;;;;;;;;;18.50;29.50;;;;;;5110309;28;19924;-59
2023/04/07 03:29:09;;;;;;;;;;;18.50;29.50;;;;;;5112631;28;19923;-60
2023/04/07 03:31:37;;;;;;;;;;;18.50;29.50;;;;;;5087153;28;19926;-59
2023/04/07 03:34:04;;;;;;;;;;;18.50;29.50;;;;;;5086486;28;20015;-59
2023/04/07 03:36:31;;;;;;;;;;;18.50;29.40;;;;;;5109753;28;19963;-60
2023/04/07 03:38:58;;;;;;;;;;;18.50;29.40;;;;;;5111451;28;19920;-59
2023/04/07 03:41:25;;;;;;;;;;;18.50;29.40;;;;;;5093899;28;20023;-59
2023/04/07 03:43:52;;;;;;;;;;;18.50;29.40;;;;;;5093394;28;19934;-57
2023/04/07 03:46:19;;;;;;;;;;;18.50;29.40;;;;;;5109920;28;19923;-59
2023/04/07 03:48:47;;;;;;;;;;;18.50;29.40;;;;;;5101876;28;19973;-59
2023/04/07 03:51:14;;;;;;;;;;;18.50;29.40;;;;;;5096169;28;19926;-59
2023/04/07 03:53:41;;;;;;;;;;;18.50;29.40;;;;;;5092839;28;19974;-59
2023/04/07 03:56:07;;;;;;;;;;;18.50;29.40;;;;;;5103810;28;19924;-57
2023/04/07 03:58:34;;;;;;;;;;;18.40;29.30;;;;;;5092868;27;19961;-60
2023/04/07 04:01:01;;;;;;;;;;;18.40;29.30;;;;;;5134003;27;19964;-60
2023/04/07 04:03:27;;;;;;;;;;;18.40;29.30;;;;;;5089243;28;20384;-58
2023/04/07 04:05:56;;;;;;;;;;;18.40;29.30;;;;;;5108657;27;19972;-59
2023/04/07 04:08:22;;;;;;;;;;;18.40;29.30;;;;;;5092447;28;19931;-59
2023/04/07 04:10:50;;;;;;;;;;;18.40;29.30;;;;;;5109608;27;19969;-60
2023/04/07 04:13:16;;;;;;;;;;;18.40;29.20;;;;;;5110695;28;19931;-58
2023/04/07 04:15:43;;;;;;;;;;;18.40;29.20;;;;;;5123856;27;19931;-59
2023/04/07 04:18:10;;;;;;;;;;;18.40;29.30;;;;;;5102940;28;19919;-58
2023/04/07 04:20:37;;;;;;;;;;;18.40;29.30;;;;;;5093370;28;19920;-58
2023/04/07 04:23:05;;;;;;;;;;;18.40;29.20;;;;;;5089230;28;19989;-59
2023/04/07 04:25:32;;;;;;;;;;;18.40;29.30;;;;;;5099599;28;20471;-60
2023/04/07 04:27:59;;;;;;;;;;;18.40;29.20;;;;;;5092825;28;19948;-59
2023/04/07 04:30:25;;;;;;;;;;;18.40;29.30;;;;;;5090961;28;19924;-59
2023/04/07 04:32:52;;;;;;;;;;;18.30;29.20;;;;;;5092894;28;19984;-59
2023/04/07 04:35:19;;;;;;;;;;;18.30;29.20;;;;;;5081942;27;19924;-60
2023/04/07 04:37:45;;;;;;;;;;;18.30;29.20;;;;;;5103185;28;19923;-60
2023/04/07 04:40:14;;;;;;;;;;;18.30;29.30;;;;;;5106332;28;19919;-59
2023/04/07 04:42:41;;;;;;;;;;;18.40;29.50;;;;;;5110915;28;20041;-61
2023/04/07 04:45:09;;;;;;;;;;;18.40;29.70;;;;;;5082973;28;19973;-60
2023/04/07 04:47:37;;;;;;;;;;;18.40;29.90;;;;;;5110517;28;19926;-61
2023/04/07 04:50:05;;;;;;;;;;;18.40;30.00;;;;;;5103044;28;19965;-60
2023/04/07 04:52:32;;;;;;;;;;;18.50;30.10;;;;;;5110067;28;19919;-60
2023/04/07 04:54:59;;;;;;;;;;;18.50;30.20;;;;;;5110771;28;19919;-61
2023/04/07 04:57:27;;;;;;;;;;;18.50;30.30;;;;;;5074870;28;19920;-60
2023/04/07 04:59:54;;;;;;;;;;;18.50;30.40;;;;;;5090847;28;19928;-60
2023/04/07 05:02:21;;;;;;;;;;;18.50;30.40;;;;;;5089272;28;19942;-60
2023/04/07 05:04:48;;;;;;;;;;;18.60;30.50;;;;;;5095506;28;20018;-61
2023/04/07 05:07:14;;;;;;;;;;;18.60;30.50;;;;;;5108982;28;19920;-59
2023/04/07 05:09:41;;;;;;;;;;;18.60;30.60;;;;;;5110248;28;19920;-61
2023/04/07 05:12:08;;;;;;;;;;;18.60;30.60;;;;;;5096616;28;19927;-60
2023/04/07 05:14:36;;;;;;;;;;;18.60;30.60;;;;;;5077532;28;19953;-60
2023/04/07 05:17:03;;;;;;;;;;;18.70;30.80;;;;;;5109946;28;20298;-60
2023/04/07 05:19:30;;;;;;;;;;;18.70;30.80;;;;;;5093598;28;19924;-60
2023/04/07 05:21:56;;;;;;;;;;;18.70;30.80;;;;;;5094705;28;19947;-60
2023/04/07 05:24:25;;;;;;;;;;;18.70;30.90;;;;;;5099470;28;19966;-60
2023/04/07 05:26:51;;;;;;;;;;;18.70;30.90;;;;;;5101200;28;19920;-60
2023/04/07 05:29:18;;;;;;;;;;;18.70;30.90;;;;;;5096599;28;19932;-60
2023/04/07 05:31:46;;;;;;;;;;;18.70;30.90;;;;;;5098364;28;19934;-60
2023/04/07 05:34:13;;;;;;;;;;;18.70;30.90;;;;;;5103116;28;19959;-60
2023/04/07 05:36:40;;;;;;;;;;;18.70;31.00;;;;;;5098286;27;19923;-60
2023/04/07 05:39:07;;;;;;;;;;;18.80;31.10;;;;;;5106207;27;19919;-60
2023/04/07 05:41:33;;;;;;;;;;;18.80;31.10;;;;;;5118452;27;19924;-60
2023/04/07 05:44:00;;;;;;;;;;;18.80;31.10;;;;;;5117302;27;19924;-60
2023/04/07 05:46:28;;;;;;;;;;;18.80;31.20;;;;;;5106410;27;19919;-60
2023/04/07 05:48:56;;;;;;;;;;;18.80;31.20;;;;;;5104953;27;19920;-61
2023/04/07 05:51:23;;;;;;;;;;;18.80;31.20;;;;;;5104481;27;19924;-61
2023/04/07 05:53:49;;;;;;;;;;;18.80;31.20;;;;;;5120280;27;19941;-60
2023/04/07 05:56:16;;;;;;;;;;;18.80;31.20;;;;;;5116701;27;19920;-60
2023/04/07 05:58:43;;;;;;;;;;;18.80;31.20;;;;;;5104468;27;19927;-60
2023/04/07 06:01:10;;;;;;;;;;;18.80;31.20;;;;;;5096793;27;20007;-60
2023/04/07 06:03:36;;;;;;;;;;;18.80;31.20;;;;;;5099912;27;19923;-61
2023/04/07 06:06:05;;;;;;;;;;;18.80;31.30;;;;;;5115375;27;19974;-60
2023/04/07 06:08:31;;;;;;;;;;;18.80;31.30;;;;;;5097145;28;19919;-61
2023/04/07 06:10:58;;;;;;;;;;;18.80;31.30;;;;;;5116076;27;19989;-61
2023/04/07 06:13:25;;;;;;;;;;;18.80;31.30;;;;;;5114470;27;19933;-61
2023/04/07 06:15:52;;;;;;;;;;;18.80;31.30;;;;;;5080651;28;19992;-61
2023/04/07 06:18:18;;;;;;;;;;;18.80;31.90;;;;;;5095065;28;19927;-61
2023/04/07 06:20:45;;;;;;;;;;;18.90;31.50;;;;;;5096252;28;19920;-61
2023/04/07 06:23:13;;;;;;;;;;;18.80;31.40;;;;;;5078792;28;19920;-61
2023/04/07 06:25:40;;;;;;;;;;;18.90;31.50;;;;;;5078836;28;19963;-60
2023/04/07 06:28:06;;;;;;;;;;;18.90;31.50;;;;;;5095457;28;19927;-61
2023/04/07 06:30:34;;;;;;;;;;;18.90;31.50;;;;;;5094969;28;20321;-61
2023/04/07 06:33:00;;;;;;;;;;;18.90;31.50;;;;;;5096092;28;19920;-60
2023/04/07 06:35:27;;;;;;;;;;;18.90;31.50;;;;;;5078461;28;19974;-60
2023/04/07 06:37:54;;;;;;;;;;;18.90;31.50;;;;;;5078147;28;20358;-60
2023/04/07 06:40:22;;;;;;;;;;;18.90;31.60;;;;;;5092154;28;20288;-60
2023/04/07 06:42:50;;;;;;;;;;;18.90;31.60;;;;;;5115743;28;19920;-60
2023/04/07 06:45:17;;;;;;;;;;;18.90;31.60;;;;;;5114904;28;19975;-59
2023/04/07 06:47:43;;;;;;;;;;;18.90;31.60;;;;;;5115983;28;19920;-60
2023/04/07 06:50:10;;;;;;;;;;;18.90;31.60;;;;;;5114100;28;19972;-61
2023/04/07 06:52:37;;;;;;;;;;;18.90;31.70;;;;;;5118424;27;19926;-61
2023/04/07 06:55:06;;;;;;;;;;;18.90;31.70;;;;;;5118648;27;19923;-61
2023/04/07 06:57:34;;;;;;;;;;;18.90;31.70;;;;;;5118570;27;19934;-61
2023/04/07 07:00:01;;;;;;;;;;;18.90;31.70;;;;;;5136819;27;19924;-61
2023/04/07 07:02:28;;;;;;;;;;;18.90;31.70;;;;;;5117947;27;19949;-61
2023/04/07 07:04:54;;;;;;;;;;;18.90;31.70;;;;;;5103308;28;20036;-61
2023/04/07 07:07:21;;;;;;;;;;;18.90;31.80;;;;;;5109540;27;19927;-60
2023/04/07 07:09:48;;;;;;;;;;;18.90;31.80;;;;;;5113079;27;19927;-61
2023/04/07 07:12:16;;;;;;;;;;;18.90;31.80;;;;;;5108699;28;20329;-61
2023/04/07 07:14:45;;;;;;;;;;;18.90;31.80;;;;;;5111773;27;19927;-61
2023/04/07 07:17:11;;;;;;;;;;;18.90;31.80;;;;;;5107148;27;19920;-61
2023/04/07 07:19:38;;;;;;;;;;;19.00;31.90;;;;;;5091869;28;19920;-61
2023/04/07 07:22:05;;;;;;;;;;;18.90;31.80;;;;;;5076243;28;19973;-61
2023/04/07 07:24:32;;;;;;;;;;;19.00;31.90;;;;;;5089336;28;19934;-61
2023/04/07 07:27:00;;;;;;;;;;;19.00;31.90;;;;;;5100298;27;19919;-61
2023/04/07 07:29:27;;;;;;;;;;;19.00;32.00;;;;;;5095667;27;19985;-61
2023/04/07 07:31:55;;;;;;;;;;;19.00;32.00;;;;;;5097572;27;19926;-61
2023/04/07 07:34:22;;;;;;;;;;;19.00;32.00;;;;;;5111380;28;19969;-61
2023/04/07 07:36:49;;;;;;;;;;;19.00;32.00;;;;;;5099420;28;19919;-62
2023/04/07 07:39:15;;;;;;;;;;;18.90;31.90;;;;;;5093130;28;20004;-60
2023/04/07 07:41:42;;;;;;;;;;;19.00;32.00;;;;;;5093095;28;19927;-61
2023/04/07 07:44:09;;;;;;;;;;;19.00;32.00;;;;;;5115486;27;19919;-60
2023/04/07 07:46:38;;;;;;;;;;;19.00;32.00;;;;;;5094774;28;22210;-60
2023/04/07 07:49:06;;;;;;;;;;;19.00;32.00;;;;;;5113037;27;19931;-60
2023/04/07 07:51:33;;;;;;;;;;;19.00;32.00;;;;;;5108229;28;19920;-59
2023/04/07 07:53:59;;;;;;;;;;;19.00;32.10;;;;;;5095416;27;19961;-59
2023/04/07 07:56:26;;;;;;;;;;;19.00;32.00;;;;;;5097922;28;20392;-59
2023/04/07 07:58:53;;;;;;;;;;;19.00;32.10;;;;;;5096514;28;19923;-61
2023/04/07 08:01:20;;;;;;;;;;;19.00;32.10;;;;;;5092988;28;19920;-61
2023/04/07 08:03:47;;;;;;;;;;;19.00;32.10;;;;;;5090694;28;20867;-60
2023/04/07 08:06:15;;;;;;;;;;;19.00;32.10;;;;;;5084278;28;19923;-61
2023/04/07 08:08:42;;;;;;;;;;;19.00;32.00;;;;;;5092478;28;19919;-59
2023/04/07 08:11:08;;;;;;;;;;;19.00;31.50;;;;;;5100075;28;19920;-60
2023/04/07 08:13:35;;;;;;;;;;;19.00;31.10;;;;;;5089256;28;19946;-60
2023/04/07 08:16:02;;;;;;;;;;;19.00;30.80;;;;;;5112113;28;19924;-60
2023/04/07 08:18:29;;;;;;;;;;;18.90;30.30;;;;;;5109413;28;19919;-59
2023/04/07 08:20:56;;;;;;;;;;;18.90;30.00;;;;;;5077931;28;19927;-61
2023/04/07 08:23:24;;;;;;;;;;;18.90;29.90;;;;;;5099562;28;19920;-61
2023/04/07 08:25:51;;;;;;;;;;;18.90;29.80;;;;;;5089057;28;20007;-60
2023/04/07 08:28:18;;;;;;;;;;;18.90;29.80;;;;;;5110923;28;19920;-61
2023/04/07 08:30:45;;;;;;;;;;;18.80;29.40;;;;;;5092246;28;19963;-61
2023/04/07 08:33:11;;;;;;;;;;;18.80;29.40;;;;;;5095534;28;19919;-60
2023/04/07 08:35:38;;;;;;;;;;;18.80;29.80;;;;;;5095394;28;19927;-60
2023/04/07 08:38:06;;;;;;;;;;;18.80;29.90;;;;;;5111729;28;19919;-61
2023/04/07 08:40:34;;;;;;;;;;;18.80;30.00;;;;;;5095398;28;19919;-60
2023/04/07 08:43:01;;;;;;;;;;;18.80;30.20;;;;;;5094278;28;19919;-61
2023/04/07 08:45:28;;;;;;;;;;;18.80;30.30;;;;;;5111129;28;20365;-61
2023/04/07 08:47:56;;;;;;;;;;;18.80;30.50;;;;;;5096584;28;19984;-61
2023/04/07 08:50:23;;;;;;;;;;;18.80;30.60;;;;;;5094038;28;19966;-60
2023/04/07 08:52:50;;;;;;;;;;;18.80;30.60;;;;;;5097964;28;19920;-60
2023/04/07 08:55:17;;;;;;;;;;;18.80;30.70;;;;;;5097338;28;19941;-60
2023/04/07 08:57:45;;;;;;;;;;;18.90;30.80;;;;;;5092448;28;19927;-60
2023/04/07 09:00:12;;;;;;;;;;;18.90;30.90;;;;;;5096279;28;19973;-60
2023/04/07 09:02:39;;;;;;;;;;;18.90;31.00;;;;;;5093868;28;20022;-60
2023/04/07 09:05:07;;;;;;;;;;;18.90;31.00;;;;;;5094300;28;20387;-57
2023/04/07 09:07:34;;;;;;;;;;;18.90;31.10;;;;;;5094038;28;19920;-61
2023/04/07 09:10:00;;;;;;;;;;;18.90;31.10;;;;;;5094082;28;19928;-61
2023/04/07 09:12:27;;;;;;;;;;;18.90;31.10;;;;;;5097791;28;19966;-61
2023/04/07 09:14:55;;;;;;;;;;;18.90;31.00;;;;;;5080075;28;20366;-61
2023/04/07 09:17:22;;;;;;;;;;;18.90;30.60;;;;;;5099549;28;19920;-61
2023/04/07 09:19:49;;;;;;;;;;;18.90;30.20;;;;;;5102048;27;19919;-60
2023/04/07 09:22:19;;;;;;;;;;;18.90;30.00;;;;;;5138202;27;19919;-61
2023/04/07 09:24:46;;;;;;;;;;;18.90;29.70;;;;;;5136552;27;19926;-61
2023/04/07 09:27:13;;;;;;;;;;;18.90;29.60;;;;;;5120770;27;20010;-61
2023/04/07 09:29:40;;;;;;;;;;;18.90;29.60;;;;;;5106711;28;19965;-61
2023/04/07 09:32:09;;;;;;;;;;;18.80;29.60;;;;;;5099687;28;19924;-61
2023/04/07 09:34:36;;;;;;;;;;;18.80;29.90;;;;;;5115963;28;20269;-61
2023/04/07 09:37:02;;;;;;;;;;;18.80;30.00;;;;;;5117581;28;19919;-61
2023/04/07 09:39:29;;;;;;;;;;;18.80;30.00;;;;;;5099440;28;19920;-61
2023/04/07 09:41:56;;;;;;;;;;;18.80;30.10;;;;;;5117123;28;19927;-61
2023/04/07 09:44:23;;;;;;;;;;;18.90;30.30;;;;;;5116661;28;20018;-61
2023/04/07 09:46:50;;;;;;;;;;;18.80;30.40;;;;;;5099436;28;19959;-61
2023/04/07 09:49:20;;;;;;;;;;;18.90;30.50;;;;;;5116209;28;20434;-61
2023/04/07 09:51:56;;;;;;;;;;;18.90;30.60;;;;;;5097356;28;19963;-61
2023/04/07 09:54:32;;;;;;;;;;;18.90;30.70;;;;;;5117066;28;19949;-61
2023/04/07 09:57:00;;;;;;;;;;;18.90;30.80;;;;;;5099013;28;19920;-61
2023/04/07 09:59:26;;;;;;;;;;;18.90;30.90;;;;;;5099061;28;19920;-61
2023/04/07 10:01:53;;;;;;;;;;;19.00;31.10;;;;;;5116534;28;19920;-61
2023/04/07 10:04:22;;;;;;;;;;;19.00;31.20;;;;;;5117324;28;19924;-61
2023/04/07 10:06:49;;;;;;;;;;;19.00;31.30;;;;;;5094082;28;19920;-60
2023/04/07 10:09:16;;;;;;;;;;;19.00;31.40;;;;;;5102253;28;19926;-61
2023/04/07 10:11:44;;;;;;;;;;;19.00;31.50;;;;;;5096325;28;20374;-61
2023/04/07 10:14:11;;;;;;;;;;;19.00;31.60;;;;;;5107463;28;19955;-61
2023/04/07 10:16:38;;;;;;;;;;;19.00;31.60;;;;;;5096604;28;19977;-61
2023/04/07 10:19:05;;;;;;;;;;;19.10;31.70;;;;;;5098699;28;19919;-61
2023/04/07 10:21:34;;;;;;;;;;;19.10;31.80;;;;;;5096176;28;19924;-61
2023/04/07 10:24:04;;;;;;;;;;;19.10;31.80;;;;;;5129155;27;19969;-60
2023/04/07 10:26:32;;;;;;;;;;;19.10;31.90;;;;;;5095140;28;19920;-60
2023/04/07 10:28:59;;;;;;;;;;;19.10;31.90;;;;;;5101756;28;19974;-61
2023/04/07 10:31:26;;;;;;;;;;;19.10;31.90;;;;;;5112902;28;19980;-61
2023/04/07 10:33:53;;;;;;;;;;;19.10;32.00;;;;;;5094780;28;19924;-61
2023/04/07 10:36:20;;;;;;;;;;;19.10;32.00;;;;;;5098611;28;19942;-61
2023/04/07 10:39:06;;;;;;;;;;;19.10;32.00;;;;;;5094187;28;19919;-60
2023/04/07 10:41:35;;;;;;;;;;;19.10;32.10;;;;;;5095418;28;19920;-61
2023/04/07 10:44:02;;;;;;;;;;;19.10;32.20;;;;;;5122374;27;19932;-61
2023/04/07 10:46:44;;;;;;;;;;;19.10;32.20;;;;;;5095224;28;20018;-61
2023/04/07 10:49:12;;;;;;;;;;;19.10;32.20;;;;;;5073259;28;19920;-61
2023/04/07 10:51:38;;;;;;;;;;;19.10;32.20;;;;;;5078602;28;19930;-61
2023/04/07 10:54:15;;;;;;;;;;;19.10;32.20;;;;;;5105713;27;19919;-62
2023/04/07 10:57:00;;;;;;;;;;;19.10;32.20;;;;;;5118212;27;20381;-61
2023/04/07 10:59:29;;;;;;;;;;;19.10;32.30;;;;;;5098454;28;20004;-61
2023/04/07 11:02:04;;;;;;;;;;;19.10;32.30;;;;;;5097934;28;20265;-61
2023/04/07 11:04:36;;;;;;;;;;;19.20;32.50;;;;;;5095870;28;19920;-61
2023/04/07 11:07:03;;;;;;;;;;;19.20;32.50;;;;;;5116055;28;19965;-61
2023/04/07 11:09:29;;;;;;;;;;;19.10;32.40;;;;;;5115921;28;19973;-61
2023/04/07 11:11:56;;;;;;;;;;;19.20;32.60;;;;;;5095698;28;19919;-60
2023/04/07 11:14:27;;;;;;;;;;;19.20;32.70;;;;;;5115765;28;19920;-60
2023/04/07 11:16:55;;;;;;;;;;;19.20;32.70;;;;;;5095641;28;19973;-60
2023/04/07 11:19:22;;;;;;;;;;;19.20;32.80;;;;;;5119729;27;19919;-60
2023/04/07 11:21:49;;;;;;;;;;;19.20;32.80;;;;;;5136730;27;19923;-60
2023/04/07 11:24:30;;;;;;;;;;;19.20;32.80;;;;;;5117793;27;19923;-60
2023/04/07 11:26:57;;;;;;;;;;;19.20;32.90;;;;;;5130731;27;19919;-60
2023/04/07 11:29:28;;;;;;;;;;;19.20;32.90;;;;;;5097260;28;20022;-60
2023/04/07 11:31:56;;;;;;;;;;;19.20;33.00;;;;;;5096918;28;19977;-61
2023/04/07 11:34:23;;;;;;;;;;;19.20;33.00;;;;;;5099909;27;20019;-61
2023/04/07 11:36:50;;;;;;;;;;;19.20;33.00;;;;;;5108479;28;19927;-60
2023/04/07 11:39:20;;;;;;;;;;;19.20;33.00;;;;;;5134452;27;19927;-61
2023/04/07 11:41:47;;;;;;;;;;;19.20;33.10;;;;;;5114786;27;19951;-60
2023/04/07 11:44:14;;;;;;;;;;;19.20;33.10;;;;;;5094699;28;19927;-60
2023/04/07 11:46:52;;;;;;;;;;;19.30;33.20;;;;;;5077040;28;19920;-61
2023/04/07 11:49:21;;;;;;;;;;;19.20;33.20;;;;;;5090809;28;19923;-60
2023/04/07 11:51:48;;;;;;;;;;;19.20;33.30;;;;;;5097310;28;19919;-61
2023/04/07 11:54:15;;;;;;;;;;;19.30;33.30;;;;;;5106198;28;19973;-60
2023/04/07 11:56:42;;;;;;;;;;;19.30;33.40;;;;;;5089001;28;20019;-60
2023/04/07 11:59:09;;;;;;;;;;;19.30;33.40;;;;;;5108538;28;19928;-60
2023/04/07 12:01:40;;;;;;;;;;;19.30;33.50;;;;;;5096931;28;19937;-61
2023/04/07 12:04:06;;;;;;;;;;;19.30;33.60;;;;;;5093837;28;20009;-58
2023/04/07 12:06:37;;;;;;;;;;;19.30;33.50;;;;;;5105505;28;19959;-60
2023/04/07 12:09:04;;;;;;;;;;;19.30;33.50;;;;;;5103523;28;19927;-59
2023/04/07 12:11:31;;;;;;;;;;;19.30;33.50;;;;;;5086880;28;19931;-60
2023/04/07 12:13:58;;;;;;;;;;;19.30;33.50;;;;;;5108810;28;19919;-60
2023/04/07 12:16:25;;;;;;;;;;;19.30;33.50;;;;;;5092776;28;19931;-59
2023/04/07 12:18:52;;;;;;;;;;;19.30;33.50;;;;;;5098249;28;19920;-60
2023/04/07 12:21:18;;;;;;;;;;;19.30;33.40;;;;;;5096554;28;20010;-60
2023/04/07 12:23:47;;;;;;;;;;;19.30;33.50;;;;;;5102070;28;19932;-60
2023/04/07 12:26:14;;;;;;;;;;;19.30;33.40;;;;;;5097107;28;19920;-60
2023/04/07 12:28:41;;;;;;;;;;;19.30;33.50;;;;;;5110651;27;19932;-60
2023/04/07 12:31:07;;;;;;;;;;;19.30;33.40;;;;;;5088118;28;19969;-59
2023/04/07 12:33:34;;;;;;;;;;;19.30;33.40;;;;;;5110624;28;19969;-60
2023/04/07 12:36:01;;;;;;;;;;;19.30;33.40;;;;;;5086892;28;19927;-59
2023/04/07 12:38:28;;;;;;;;;;;19.30;33.40;;;;;;5106684;28;19948;-59
2023/04/07 12:41:02;;;;;;;;;;;19.30;33.30;;;;;;5106090;28;19919;-59
2023/04/07 12:43:29;;;;;;;;;;;19.20;33.30;;;;;;5090194;28;19920;-59
2023/04/07 12:45:56;;;;;;;;;;;19.30;33.30;;;;;;5109381;28;19942;-60
2023/04/07 12:48:22;;;;;;;;;;;19.20;33.20;;;;;;5096462;28;19961;-60
2023/04/07 12:50:49;;;;;;;;;;;19.30;33.30;;;;;;5096639;28;19919;-60
2023/04/07 12:53:16;;;;;;;;;;;19.30;33.20;;;;;;5101908;28;19923;-60
2023/04/07 12:55:43;;;;;;;;;;;19.30;33.30;;;;;;5098492;28;20079;-60
2023/04/07 12:58:12;;;;;;;;;;;19.20;33.20;;;;;;5090305;28;19927;-61
2023/04/07 13:00:40;;;;;;;;;;;19.30;33.20;;;;;;5093364;28;19942;-60
2023/04/07 13:03:07;;;;;;;;;;;19.20;33.10;;;;;;5104632;27;20401;-61
2023/04/07 13:05:34;;;;;;;;;;;19.20;33.10;;;;;;5099028;28;20012;-61
2023/04/07 13:08:01;;;;;;;;;;;19.20;33.10;;;;;;5099283;28;19934;-60
2023/04/07 13:10:27;;;;;;;;;;;19.20;33.00;;;;;;5114782;28;19920;-60
2023/04/07 13:12:54;;;;;;;;;;;19.20;33.00;;;;;;5099474;28;19924;-61
2023/04/07 13:15:23;;;;;;;;;;;19.20;33.00;;;;;;5112367;28;19962;-61
2023/04/07 13:17:50;;;;;;;;;;;19.30;33.10;;;;;;5112164;27;20365;-61
2023/04/07 13:20:16;;;;;;;;;;;19.20;33.00;;;;;;5107438;27;19973;-62
2023/04/07 13:22:43;;;;;;;;;;;19.30;33.10;;;;;;5113238;28;19924;-62
2023/04/07 13:25:13;;;;;;;;;;;19.20;32.90;;;;;;5102296;28;19919;-62
2023/04/07 13:27:40;;;;;;;;;;;19.30;33.00;;;;;;5102547;28;19942;-62
2023/04/07 13:30:08;;;;;;;;;;;19.30;32.90;;;;;;5102479;28;19969;-62
2023/04/07 13:32:36;;;;;;;;;;;19.20;32.80;;;;;;5121093;28;19924;-62
2023/04/07 13:35:03;;;;;;;;;;;19.20;32.80;;;;;;5100586;28;19926;-62
2023/04/07 13:37:29;;;;;;;;;;;19.20;32.70;;;;;;5102444;28;19958;-62
2023/04/07 13:39:56;;;;;;;;;;;19.20;32.70;;;;;;5104011;28;19958;-61
2023/04/07 13:42:23;;;;;;;;;;;19.20;32.60;;;;;;5100234;28;19924;-62
2023/04/07 13:44:50;;;;;;;;;;;19.20;32.50;;;;;;5082148;28;19961;-62
2023/04/07 13:47:18;;;;;;;;;;;19.20;32.50;;;;;;5099685;28;19920;-62
2023/04/07 13:49:47;;;;;;;;;;;19.20;32.50;;;;;;5082286;28;19920;-62
2023/04/07 13:52:13;;;;;;;;;;;19.20;32.40;;;;;;5098800;28;19989;-62
2023/04/07 13:54:40;;;;;;;;;;;19.20;32.40;;;;;;5082067;28;19920;-62
2023/04/07 13:57:07;;;;;;;;;;;19.20;32.30;;;;;;5079541;28;19928;-62
2023/04/07 13:59:34;;;;;;;;;;;19.20;32.30;;;;;;5097005;28;19923;-62
2023/04/07 14:02:00;;;;;;;;;;;19.20;32.30;;;;;;5097080;28;19920;-62
2023/04/07 14:04:27;;;;;;;;;;;19.20;32.40;;;;;;5078616;28;19920;-62
2023/04/07 14:06:55;;;;;;;;;;;19.20;32.40;;;;;;5078705;28;20274;-62
2023/04/07 14:09:22;;;;;;;;;;;19.20;32.40;;;;;;5086011;28;19923;-62
2023/04/07 14:11:49;;;;;;;;;;;19.20;32.40;;;;;;5099732;28;20223;-62
2023/04/07 14:14:15;;;;;;;;;;;19.20;32.40;;;;;;5111651;28;19976;-63
2023/04/07 14:16:43;;;;;;;;;;;19.20;32.40;;;;;;5111917;28;19972;-61